createdAt,value
2023-02-28T00:01:25.319Z,44.51
2023-02-28T00:03:52.142Z,44.74
2023-02-28T00:06:18.865Z,45.16
2023-02-28T00:08:45.654Z,45.13
2023-02-28T00:11:14.544Z,45.03
2023-02-28T00:13:44.762Z,45.13
2023-02-28T00:16:15.774Z,45.30
2023-02-28T00:18:42.740Z,45.03
2023-02-28T00:21:09.693Z,45.40
2023-02-28T00:23:37.105Z,45.08
2023-02-28T00:26:04.037Z,45.31
2023-02-28T00:28:30.836Z,45.47
2023-02-28T00:31:00.992Z,46.09
2023-02-28T00:33:28.876Z,46.18
2023-02-28T00:36:07.441Z,46.30
2023-02-28T00:38:36.369Z,45.94
2023-02-28T00:41:05.520Z,46.19
2023-02-28T00:43:34.828Z,46.44
2023-02-28T00:46:02.216Z,46.54
2023-02-28T00:48:31.258Z,46.62
2023-02-28T00:50:57.934Z,46.81
2023-02-28T00:53:25.707Z,46.94
2023-02-28T00:55:52.506Z,47.02
2023-02-28T00:58:19.311Z,46.95
2023-02-28T01:00:49.791Z,46.98
2023-02-28T01:03:20.835Z,47.01
2023-02-28T01:05:47.974Z,46.97
2023-02-28T01:08:16.019Z,47.41
2023-02-28T01:10:43.224Z,47.24
2023-02-28T01:13:10.057Z,47.88
2023-02-28T01:15:38.006Z,47.57
2023-02-28T01:18:05.388Z,47.36
2023-02-28T01:20:32.088Z,47.83
2023-02-28T01:22:58.845Z,47.51
2023-02-28T01:25:25.512Z,47.71
2023-02-28T01:27:53.125Z,47.90
2023-02-28T01:30:19.923Z,48.09
2023-02-28T01:32:47.563Z,48.14
2023-02-28T01:35:14.302Z,48.33
2023-02-28T01:37:40.940Z,48.42
2023-02-28T01:40:08.283Z,48.60
2023-02-28T01:42:35.059Z,48.69
2023-02-28T01:45:19.360Z,48.87
2023-02-28T01:47:51.070Z,48.75
2023-02-28T01:50:27.515Z,49.18
2023-02-28T01:52:58.126Z,49.19
2023-02-28T01:55:29.500Z,48.97
2023-02-28T01:58:01.222Z,49.46
2023-02-28T02:00:29.642Z,49.59
2023-02-28T02:03:00.613Z,49.70
2023-02-28T02:05:32.012Z,49.77
2023-02-28T02:08:04.219Z,49.94
2023-02-28T02:10:36.171Z,49.90
2023-02-28T02:13:14.940Z,50.33
2023-02-28T02:16:01.341Z,49.97
2023-02-28T02:18:59.374Z,50.19
2023-02-28T02:21:38.330Z,50.26
2023-02-28T02:24:23.681Z,50.99
2023-02-28T02:27:24.411Z,50.81
2023-02-28T02:30:00.280Z,50.91
2023-02-28T02:32:48.303Z,51.29
2023-02-28T02:35:18.601Z,51.39
2023-02-28T02:37:51.407Z,51.19
2023-02-28T02:40:21.936Z,51.50
2023-02-28T02:43:11.711Z,51.26
2023-02-28T02:45:47.529Z,51.50
2023-02-28T02:48:18.834Z,52.07
2023-02-28T02:51:12.698Z,51.94
2023-02-28T02:54:11.124Z,52.35
2023-02-28T02:56:42.491Z,52.26
2023-02-28T02:59:13.954Z,52.22
2023-02-28T03:01:42.545Z,52.67
2023-02-28T03:04:17.851Z,52.34
2023-02-28T03:06:44.517Z,52.68
2023-02-28T03:09:11.246Z,52.73
2023-02-28T03:11:42.342Z,52.86
2023-02-28T03:14:20.318Z,52.47
2023-02-28T03:17:01.234Z,52.37
2023-02-28T03:20:05.549Z,52.56
2023-02-28T03:22:59.472Z,53.02
2023-02-28T03:25:38.328Z,53.21
2023-02-28T03:28:28.344Z,52.98
2023-02-28T03:31:31.278Z,53.12
2023-02-28T03:34:11.322Z,53.28
2023-02-28T03:36:46.683Z,53.26
2023-02-28T03:39:24.040Z,53.51
2023-02-28T03:41:54.976Z,53.35
2023-02-28T03:44:31.523Z,53.92
2023-02-28T03:47:25.902Z,53.87
2023-02-28T03:50:08.721Z,53.53
2023-02-28T03:52:48.435Z,53.76
2023-02-28T03:55:17.622Z,53.86
2023-02-28T03:58:08.986Z,54.31
2023-02-28T04:00:41.325Z,54.25
2023-02-28T04:03:08.024Z,54.53
2023-02-28T04:05:48.338Z,54.75
2023-02-28T04:08:14.956Z,54.56
2023-02-28T04:10:44.457Z,54.70
2023-02-28T04:13:11.115Z,55.07
2023-02-28T04:15:37.816Z,54.60
2023-02-28T04:18:04.494Z,54.73
2023-02-28T04:20:31.169Z,54.77
2023-02-28T04:22:57.873Z,55.03
2023-02-28T04:25:24.550Z,55.27
2023-02-28T04:27:51.209Z,55.10
2023-02-28T04:30:17.920Z,55.31
2023-02-28T04:32:44.683Z,55.19
2023-02-28T04:35:12.405Z,54.98
2023-02-28T04:37:39.170Z,55.27
2023-02-28T04:40:06.444Z,55.11
2023-02-28T04:42:36.434Z,55.49
2023-02-28T04:45:04.403Z,55.05
2023-02-28T04:47:31.527Z,55.66
2023-02-28T04:49:58.316Z,55.53
2023-02-28T04:52:25.071Z,55.99
2023-02-28T04:54:51.694Z,56.31
2023-02-28T04:57:18.406Z,55.75
2023-02-28T04:59:45.225Z,56.15
2023-02-28T05:02:12.014Z,56.12
2023-02-28T05:04:38.774Z,55.89
2023-02-28T05:07:05.529Z,55.78
2023-02-28T05:09:33.868Z,56.15
2023-02-28T05:12:00.596Z,55.95
2023-02-28T05:14:27.409Z,56.11
2023-02-28T05:16:54.035Z,56.13
2023-02-28T05:19:22.223Z,56.01
2023-02-28T05:21:54.106Z,56.04
2023-02-28T05:24:23.664Z,56.24
2023-02-28T05:26:52.958Z,56.23
2023-02-28T05:29:20.150Z,56.59
2023-02-28T05:31:47.598Z,56.30
2023-02-28T05:34:16.536Z,56.19
2023-02-28T05:36:43.787Z,56.25
2023-02-28T05:39:13.938Z,56.51
2023-02-28T05:41:43.121Z,56.61
2023-02-28T05:44:11.102Z,57.00
2023-02-28T05:46:38.067Z,56.82
2023-02-28T05:49:05.243Z,56.81
2023-02-28T05:51:32.380Z,56.63
2023-02-28T05:54:02.949Z,56.90
2023-02-28T05:56:30.058Z,57.12
2023-02-28T05:58:56.812Z,56.95
2023-02-28T06:01:40.265Z,56.78
2023-02-28T06:04:14.331Z,57.16
2023-02-28T06:06:47.215Z,57.06
2023-02-28T06:09:14.573Z,57.39
2023-02-28T06:11:41.643Z,57.80
2023-02-28T06:14:08.772Z,57.40
2023-02-28T06:16:36.677Z,57.51
2023-02-28T06:19:04.893Z,57.54
2023-02-28T06:21:32.781Z,57.40
2023-02-28T06:23:59.828Z,57.63
2023-02-28T06:26:26.675Z,57.85
2023-02-28T06:28:53.478Z,57.89
2023-02-28T06:31:20.334Z,57.55
2023-02-28T06:33:47.692Z,57.69
2023-02-28T06:36:17.556Z,57.82
2023-02-28T06:38:44.862Z,58.33
2023-02-28T06:41:12.060Z,58.15
2023-02-28T06:43:41.980Z,58.40
2023-02-28T06:46:12.159Z,57.51
2023-02-28T06:48:44.539Z,58.05
2023-02-28T06:51:14.955Z,57.44
2023-02-28T06:53:42.232Z,57.14
2023-02-28T06:56:11.868Z,57.19
2023-02-28T06:58:40.158Z,57.53
2023-02-28T07:01:08.418Z,57.22
2023-02-28T07:03:36.822Z,56.85
2023-02-28T07:06:04.959Z,56.21
2023-02-28T07:08:32.619Z,56.04
2023-02-28T07:10:59.735Z,55.43
2023-02-28T07:13:26.621Z,55.11
2023-02-28T07:15:58.557Z,54.84
2023-02-28T07:18:26.175Z,54.29
2023-02-28T07:20:56.081Z,54.32
2023-02-28T07:23:23.482Z,53.36
2023-02-28T07:25:51.599Z,52.02
2023-02-28T07:28:18.418Z,50.45
2023-02-28T07:30:45.051Z,48.84
2023-02-28T07:33:11.866Z,45.70
2023-02-28T07:35:38.620Z,43.71
2023-02-28T07:38:05.333Z,42.44
2023-02-28T07:40:32.227Z,40.96
2023-02-28T07:43:00.350Z,39.51
2023-02-28T07:45:29.650Z,37.97
2023-02-28T07:47:56.714Z,36.38
2023-02-28T07:50:25.145Z,36.17
2023-02-28T07:52:53.469Z,37.07
2023-02-28T07:55:20.157Z,35.85
2023-02-28T07:57:46.882Z,33.97
2023-02-28T08:00:14.632Z,33.36
2023-02-28T08:02:41.574Z,33.49
2023-02-28T08:05:09.416Z,33.73
2023-02-28T08:07:36.194Z,33.02
2023-02-28T08:10:03.313Z,33.33
2023-02-28T08:12:30.032Z,33.00
2023-02-28T08:14:56.672Z,32.35
2023-02-28T08:17:23.872Z,31.34
2023-02-28T08:19:50.528Z,31.19
2023-02-28T08:22:17.221Z,30.42
2023-02-28T08:24:44.693Z,28.99
2023-02-28T08:27:11.339Z,27.81
2023-02-28T08:29:39.167Z,27.52
2023-02-28T08:32:14.513Z,27.37
2023-02-28T08:34:48.186Z,26.42
2023-02-28T08:37:15.107Z,26.10
2023-02-28T08:39:41.811Z,25.70
2023-02-28T08:42:08.490Z,25.86
2023-02-28T08:44:35.271Z,26.39
2023-02-28T08:47:01.980Z,26.24
2023-02-28T08:49:29.562Z,25.42
2023-02-28T08:51:58.103Z,25.77
2023-02-28T08:54:25.816Z,26.10
2023-02-28T08:56:52.640Z,25.92
2023-02-28T08:59:19.386Z,26.36
2023-02-28T09:01:46.241Z,26.30
2023-02-28T09:04:14.565Z,26.84
2023-02-28T09:06:45.412Z,28.14
2023-02-28T09:09:12.111Z,30.70
2023-02-28T09:11:39.005Z,33.33
2023-02-28T09:14:05.723Z,34.28
2023-02-28T09:16:34.434Z,35.11
2023-02-28T09:19:01.778Z,35.23
2023-02-28T09:21:29.394Z,35.73
2023-02-28T09:23:56.371Z,35.30
2023-02-28T09:26:25.578Z,34.95
2023-02-28T09:28:53.738Z,36.25
2023-02-28T09:31:24.535Z,35.41
2023-02-28T09:33:52.869Z,34.34
2023-02-28T09:36:20.958Z,35.31
2023-02-28T09:38:48.906Z,35.92
2023-02-28T09:41:19.428Z,35.06
2023-02-28T09:43:59.000Z,35.40
2023-02-28T09:46:34.736Z,36.03
2023-02-28T09:49:07.246Z,35.84
2023-02-28T09:52:01.926Z,35.46
2023-02-28T09:54:31.944Z,35.25
2023-02-28T09:57:04.499Z,35.04
2023-02-28T09:59:59.641Z,35.30
2023-02-28T10:02:49.054Z,35.64
2023-02-28T10:05:19.617Z,36.85
2023-02-28T10:08:00.016Z,36.74
2023-02-28T10:10:33.788Z,35.82
2023-02-28T10:13:03.749Z,36.56
2023-02-28T10:15:32.779Z,36.22
2023-02-28T10:18:09.141Z,35.80
2023-02-28T10:20:39.810Z,35.34
2023-02-28T10:23:26.810Z,35.88
2023-02-28T10:26:12.408Z,34.70
2023-02-28T10:28:39.153Z,32.24
2023-02-28T10:31:05.996Z,31.57
2023-02-28T10:33:36.553Z,30.93
2023-02-28T10:36:04.736Z,30.04
2023-02-28T10:38:36.723Z,29.39
2023-02-28T10:41:15.998Z,27.97
2023-02-28T10:43:46.150Z,27.65
2023-02-28T10:46:26.683Z,25.60
2023-02-28T10:49:07.022Z,25.28
2023-02-28T10:51:41.430Z,26.89
2023-02-28T10:54:20.875Z,27.70
2023-02-28T10:57:07.939Z,29.13
2023-02-28T10:59:34.806Z,30.09
2023-02-28T11:02:01.558Z,29.02
2023-02-28T11:04:33.226Z,30.13
2023-02-28T11:07:01.215Z,29.86
2023-02-28T11:09:33.828Z,30.02
2023-02-28T11:12:02.123Z,29.66
2023-02-28T11:14:31.436Z,28.65
2023-02-28T11:17:15.299Z,28.91
2023-02-28T11:19:48.768Z,29.42
2023-02-28T11:22:25.645Z,29.28
2023-02-28T11:24:56.129Z,28.38
2023-02-28T11:27:32.850Z,26.71
2023-02-28T11:30:00.628Z,25.50
2023-02-28T11:32:30.029Z,25.69
2023-02-28T11:35:12.125Z,27.34
2023-02-28T11:37:40.330Z,25.40
2023-02-28T11:40:18.010Z,23.47
2023-02-28T11:43:20.317Z,23.56
2023-02-28T11:46:01.230Z,23.88
2023-02-28T11:48:42.046Z,24.19
2023-02-28T11:51:22.465Z,26.53
2023-02-28T11:54:07.206Z,27.18
2023-02-28T11:56:45.290Z,27.80
2023-02-28T11:59:33.289Z,28.93
2023-02-28T12:02:18.403Z,30.48
2023-02-28T12:05:00.027Z,30.86
2023-02-28T12:07:39.511Z,31.21
2023-02-28T12:10:12.922Z,30.26
2023-02-28T12:13:13.708Z,29.26
2023-02-28T12:16:06.952Z,29.72
2023-02-28T12:18:47.914Z,29.75
2023-02-28T12:21:26.821Z,30.68
2023-02-28T12:24:11.412Z,31.33
2023-02-28T12:26:43.821Z,31.58
2023-02-28T12:29:31.692Z,32.54
2023-02-28T12:32:19.647Z,32.72
2023-02-28T12:34:59.999Z,32.90
2023-02-28T12:37:33.028Z,34.25
2023-02-28T12:40:10.646Z,33.29
2023-02-28T12:42:43.103Z,33.72
2023-02-28T12:45:25.318Z,34.10
2023-02-28T12:48:01.390Z,34.19
2023-02-28T12:50:30.970Z,33.90
2023-02-28T12:53:10.472Z,33.78
2023-02-28T12:56:05.173Z,34.71
2023-02-28T12:58:36.961Z,33.91
2023-02-28T13:01:18.827Z,34.08
2023-02-28T13:04:15.351Z,34.64
2023-02-28T13:06:48.085Z,35.14
2023-02-28T13:09:19.264Z,35.29
2023-02-28T13:11:48.664Z,35.76
2023-02-28T13:14:21.413Z,36.12
2023-02-28T13:17:09.257Z,36.32
2023-02-28T13:19:43.932Z,36.33
2023-02-28T13:22:40.352Z,36.01
2023-02-28T13:25:25.856Z,36.03
2023-02-28T13:28:01.841Z,35.77
2023-02-28T13:30:53.865Z,35.60
2023-02-28T13:33:34.764Z,34.83
2023-02-28T13:36:10.654Z,33.79
2023-02-28T13:38:50.460Z,34.02
2023-02-28T13:41:29.967Z,33.76
2023-02-28T13:44:04.316Z,33.50
2023-02-28T13:46:32.393Z,33.93
2023-02-28T13:49:23.997Z,33.92
2023-02-28T13:51:53.301Z,33.59
2023-02-28T13:54:30.263Z,32.63
2023-02-28T13:57:23.512Z,33.59
2023-02-28T14:00:09.335Z,32.84
2023-02-28T14:03:00.807Z,32.60
2023-02-28T14:05:30.632Z,32.32
2023-02-28T14:08:00.402Z,32.52
2023-02-28T14:10:33.568Z,33.78
2023-02-28T14:13:02.037Z,33.67
2023-02-28T14:15:37.884Z,33.98
2023-02-28T14:18:15.404Z,33.99
2023-02-28T14:20:44.574Z,33.73
2023-02-28T14:23:26.633Z,34.04
2023-02-28T14:26:19.161Z,33.45
2023-02-28T14:28:51.907Z,33.37
2023-02-28T14:31:29.046Z,33.47
2023-02-28T14:34:14.086Z,33.94
2023-02-28T14:36:43.402Z,33.06
2023-02-28T14:39:17.592Z,33.63
2023-02-28T14:41:45.543Z,33.64
2023-02-28T14:44:24.777Z,34.01
2023-02-28T14:46:55.041Z,33.90
2023-02-28T14:49:28.431Z,34.21
2023-02-28T14:52:15.996Z,34.30
2023-02-28T14:54:43.204Z,34.26
2023-02-28T14:57:29.501Z,33.78
2023-02-28T15:00:21.075Z,34.20
2023-02-28T15:02:48.163Z,33.93
2023-02-28T15:05:17.454Z,34.37
2023-02-28T15:07:46.151Z,33.45
2023-02-28T15:10:27.062Z,34.26
2023-02-28T15:12:59.027Z,33.64
2023-02-28T15:15:40.537Z,34.07
2023-02-28T15:18:22.946Z,33.91
2023-02-28T15:20:51.724Z,34.83
2023-02-28T15:23:21.440Z,34.60
2023-02-28T15:25:49.205Z,34.66
2023-02-28T15:28:23.535Z,34.72
2023-02-28T15:31:00.255Z,34.38
2023-02-28T15:33:32.613Z,35.10
2023-02-28T15:36:16.867Z,35.35
2023-02-28T15:38:44.982Z,35.16
2023-02-28T15:41:27.782Z,35.13
2023-02-28T15:44:17.812Z,35.40
2023-02-28T15:46:55.584Z,35.84
2023-02-28T15:49:24.150Z,36.41
2023-02-28T15:51:54.585Z,35.93
2023-02-28T15:54:25.523Z,36.37
2023-02-28T15:56:54.878Z,36.06
2023-02-28T15:59:28.742Z,36.59
2023-02-28T16:02:24.987Z,36.30
2023-02-28T16:05:08.499Z,36.12
2023-02-28T16:07:37.814Z,36.55
2023-02-28T16:10:05.414Z,37.16
2023-02-28T16:12:34.658Z,36.92
2023-02-28T16:15:04.097Z,37.39
2023-02-28T16:17:34.557Z,37.15
2023-02-28T16:20:01.883Z,37.43
2023-02-28T16:22:28.471Z,37.13
2023-02-28T16:24:55.080Z,37.25
2023-02-28T16:27:31.256Z,37.57
2023-02-28T16:29:58.263Z,37.94
2023-02-28T16:32:25.231Z,37.78
2023-02-28T16:34:51.944Z,37.85
2023-02-28T16:37:19.145Z,38.00
2023-02-28T16:39:46.350Z,37.51
2023-02-28T16:42:27.871Z,38.25
2023-02-28T16:44:55.528Z,38.20
2023-02-28T16:47:22.896Z,38.02
2023-02-28T16:49:49.614Z,38.22
2023-02-28T16:52:16.500Z,38.53
2023-02-28T16:54:43.461Z,38.62
2023-02-28T16:57:20.967Z,39.04
2023-02-28T16:59:48.303Z,38.85
2023-02-28T17:02:17.584Z,38.79
2023-02-28T17:04:44.434Z,39.20
2023-02-28T17:07:16.956Z,39.19
2023-02-28T17:09:46.352Z,38.96
2023-02-28T17:12:13.672Z,39.21
2023-02-28T17:14:40.478Z,39.12
2023-02-28T17:17:08.047Z,39.44
2023-02-28T17:19:36.929Z,39.57
2023-02-28T17:22:04.122Z,39.20
2023-02-28T17:24:31.587Z,39.38
2023-02-28T17:26:58.989Z,39.37
2023-02-28T17:29:25.990Z,39.19
2023-02-28T17:31:52.998Z,39.41
2023-02-28T17:34:20.641Z,39.36
2023-02-28T17:36:48.881Z,39.34
2023-02-28T17:39:20.654Z,39.95
2023-02-28T17:41:47.517Z,40.21
2023-02-28T17:44:14.443Z,40.19
2023-02-28T17:46:42.173Z,39.98
2023-02-28T17:49:09.729Z,40.29
2023-02-28T17:51:36.664Z,40.19
2023-02-28T17:54:03.535Z,40.20
2023-02-28T17:56:30.436Z,39.91
2023-02-28T17:58:57.761Z,40.48
2023-02-28T18:01:27.889Z,40.50
2023-02-28T18:03:55.749Z,40.35
2023-02-28T18:06:28.231Z,40.54
2023-02-28T18:08:55.427Z,40.65
2023-02-28T18:11:24.275Z,40.60
2023-02-28T18:13:56.713Z,40.39
2023-02-28T18:16:23.488Z,40.63
2023-02-28T18:18:50.438Z,40.48
2023-02-28T18:21:17.617Z,41.15
2023-02-28T18:23:48.398Z,40.62
2023-02-28T18:26:16.597Z,41.21
2023-02-28T18:28:44.581Z,40.42
2023-02-28T18:31:16.845Z,41.26
2023-02-28T18:33:51.259Z,41.18
2023-02-28T18:36:20.684Z,41.29
2023-02-28T18:38:50.304Z,41.24
2023-02-28T18:41:21.504Z,41.23
2023-02-28T18:43:49.469Z,41.63
2023-02-28T18:46:19.284Z,41.49
2023-02-28T18:48:46.497Z,41.06
2023-02-28T18:51:21.978Z,41.00
2023-02-28T18:53:48.772Z,41.28
2023-02-28T18:56:18.276Z,41.62
2023-02-28T18:58:45.587Z,41.79
2023-02-28T19:01:24.637Z,41.50
2023-02-28T19:03:51.632Z,41.58
2023-02-28T19:06:19.241Z,41.82
2023-02-28T19:08:45.984Z,41.85
2023-02-28T19:11:15.726Z,42.41
2023-02-28T19:13:43.264Z,42.54
2023-02-28T19:16:12.640Z,42.76
2023-02-28T19:18:40.132Z,42.85
2023-02-28T19:21:08.450Z,43.16
2023-02-28T19:23:35.171Z,43.96
2023-02-28T19:26:06.255Z,43.70
2023-02-28T19:28:33.037Z,44.14
2023-02-28T19:30:59.741Z,44.21
2023-02-28T19:33:26.509Z,44.53
2023-02-28T19:35:53.477Z,44.74
2023-02-28T19:38:20.267Z,44.08
2023-02-28T19:40:46.955Z,44.24
2023-02-28T19:43:13.927Z,44.77
2023-02-28T19:45:40.707Z,45.51
2023-02-28T19:48:09.779Z,44.96
2023-02-28T19:50:37.614Z,45.57
2023-02-28T19:53:04.433Z,45.28
2023-02-28T19:55:31.639Z,44.92
2023-02-28T19:57:58.387Z,45.45
2023-02-28T20:00:25.034Z,44.83
2023-02-28T20:02:51.798Z,45.49
2023-02-28T20:05:18.636Z,45.43
2023-02-28T20:07:45.312Z,45.49
2023-02-28T20:10:12.498Z,44.93
2023-02-28T20:12:39.299Z,45.01
2023-02-28T20:15:06.527Z,44.90
2023-02-28T20:17:33.237Z,45.41
2023-02-28T20:19:59.929Z,45.47
2023-02-28T20:22:26.694Z,44.74
2023-02-28T20:24:53.961Z,45.40
2023-02-28T20:27:20.639Z,45.39
2023-02-28T20:29:47.496Z,45.10
2023-02-28T20:32:14.488Z,45.05
2023-02-28T20:34:41.473Z,45.37
2023-02-28T20:37:08.274Z,45.43
2023-02-28T20:39:34.991Z,44.98
2023-02-28T20:42:01.642Z,45.62
2023-02-28T20:44:28.322Z,45.25
2023-02-28T20:46:54.971Z,45.59
2023-02-28T20:49:22.926Z,45.61
2023-02-28T20:51:49.649Z,45.53
2023-02-28T20:54:16.414Z,45.46
2023-02-28T20:56:43.080Z,46.04
2023-02-28T20:59:12.974Z,45.67
2023-02-28T21:01:42.625Z,45.61
2023-02-28T21:04:09.351Z,46.13
2023-02-28T21:06:38.788Z,45.83
2023-02-28T21:09:07.678Z,46.14
2023-02-28T21:11:36.885Z,46.18
2023-02-28T21:14:06.671Z,46.28
2023-02-28T21:16:36.564Z,46.31
2023-02-28T21:19:04.643Z,46.01
2023-02-28T21:21:42.868Z,46.32
2023-02-28T21:24:11.661Z,46.26
2023-02-28T21:26:40.564Z,46.75
2023-02-28T21:29:07.704Z,46.65
2023-02-28T21:31:35.442Z,46.71
2023-02-28T21:34:04.874Z,46.08
2023-02-28T21:36:37.202Z,46.20
2023-02-28T21:39:08.974Z,46.22
2023-02-28T21:41:35.921Z,46.43
2023-02-28T21:44:02.782Z,46.96
2023-02-28T21:46:31.021Z,46.71
2023-02-28T21:48:58.655Z,46.55
2023-02-28T21:51:33.786Z,46.96
2023-02-28T21:54:01.106Z,47.13
2023-02-28T21:56:30.290Z,46.84
2023-02-28T21:59:03.443Z,47.22
2023-02-28T22:01:32.211Z,47.38
2023-02-28T22:03:59.566Z,47.41
2023-02-28T22:06:29.881Z,46.98
2023-02-28T22:08:59.254Z,47.02
2023-02-28T22:11:26.431Z,47.10
2023-02-28T22:13:57.790Z,47.56
2023-02-28T22:16:26.656Z,47.07
2023-02-28T22:18:54.996Z,47.18
2023-02-28T22:21:23.196Z,46.95
2023-02-28T22:23:50.458Z,47.61
2023-02-28T22:26:20.290Z,47.44
2023-02-28T22:28:47.374Z,47.27
2023-02-28T22:31:21.499Z,47.59
2023-02-28T22:33:49.521Z,47.72
2023-02-28T22:36:17.903Z,47.35
2023-02-28T22:38:46.029Z,47.37
2023-02-28T22:41:12.883Z,47.58
2023-02-28T22:43:40.643Z,47.67
2023-02-28T22:46:09.829Z,47.24
2023-02-28T22:48:37.013Z,47.42
2023-02-28T22:51:12.642Z,47.43
2023-02-28T22:53:39.765Z,47.64
2023-02-28T22:56:08.139Z,47.83
2023-02-28T22:58:35.017Z,47.84
2023-02-28T23:01:22.326Z,47.56
2023-02-28T23:03:49.884Z,47.71
2023-02-28T23:06:19.930Z,47.65
2023-02-28T23:08:46.634Z,47.44
2023-02-28T23:11:29.519Z,48.15
2023-02-28T23:13:59.024Z,47.59
2023-02-28T23:16:31.167Z,48.34
2023-02-28T23:19:01.143Z,48.19
2023-02-28T23:21:28.646Z,48.65
2023-02-28T23:23:55.647Z,48.12
2023-02-28T23:26:22.892Z,48.82
2023-02-28T23:28:49.560Z,48.58
2023-02-28T23:31:16.367Z,48.56
2023-02-28T23:33:43.140Z,48.58
2023-02-28T23:36:15.200Z,49.02
2023-02-28T23:38:45.531Z,48.75
2023-02-28T23:41:13.652Z,48.84
2023-02-28T23:43:40.718Z,49.01
2023-02-28T23:46:08.454Z,49.30
2023-02-28T23:48:35.457Z,49.30
2023-02-28T23:51:08.298Z,49.08
2023-02-28T23:53:36.196Z,49.44
2023-02-28T23:56:03.488Z,49.32
2023-02-28T23:58:30.693Z,49.50
